createdAt,value
2017-08-22T00:00:36.069Z,99280.19
2017-08-22T00:03:05.433Z,99279.40
2017-08-22T00:05:35.173Z,99277.36
2017-08-22T00:08:04.903Z,99276.53
2017-08-22T00:10:34.637Z,99274.66
2017-08-22T00:13:04.354Z,99276.59
2017-08-22T00:15:34.089Z,99277.68
2017-08-22T00:18:03.830Z,99286.22
2017-08-22T00:20:33.544Z,99285.25
2017-08-22T00:23:03.107Z,99286.34
2017-08-22T00:25:32.809Z,99279.86
2017-08-22T00:28:02.533Z,99278.84
2017-08-22T00:30:32.263Z,99280.84
2017-08-22T00:33:02.108Z,99271.75
2017-08-22T00:35:31.841Z,99277.49
2017-08-22T00:38:01.582Z,99283.59
2017-08-22T00:40:31.300Z,99276.72
2017-08-22T00:43:01.016Z,99276.41
2017-08-22T00:45:30.773Z,99273.20
2017-08-22T00:48:00.501Z,99275.94
2017-08-22T00:50:30.259Z,99274.23
2017-08-22T00:52:59.952Z,99276.72
2017-08-22T00:55:29.686Z,99278.73
2017-08-22T00:57:59.429Z,99280.48
2017-08-22T01:00:29.149Z,99274.91
2017-08-22T01:02:58.696Z,99268.03
2017-08-22T01:05:28.417Z,99273.05
2017-08-22T01:07:58.166Z,99274.13
2017-08-22T01:10:27.932Z,99279.34
2017-08-22T01:12:57.467Z,99277.39
2017-08-22T01:15:27.197Z,99282.19
2017-08-22T01:17:56.933Z,99286.84
2017-08-22T01:20:26.306Z,99280.89
2017-08-22T01:22:56.032Z,99279.76
2017-08-22T01:25:25.781Z,99281.04
2017-08-22T01:27:55.491Z,99284.59
2017-08-22T01:30:25.226Z,99283.98
2017-08-22T01:32:54.966Z,99286.57
2017-08-22T01:35:24.701Z,99285.44
2017-08-22T01:37:54.426Z,99291.99
2017-08-22T01:40:24.028Z,99288.89
2017-08-22T01:42:53.226Z,99289.62
2017-08-22T01:45:22.996Z,99284.80
2017-08-22T01:47:52.705Z,99289.59
2017-08-22T01:50:22.445Z,99289.39
2017-08-22T01:52:52.185Z,99286.33
2017-08-22T01:55:21.987Z,99290.05
2017-08-22T01:57:51.704Z,99297.60
2017-08-22T02:00:21.473Z,99299.92
2017-08-22T02:02:51.011Z,99299.92
2017-08-22T02:05:20.603Z,99297.17
2017-08-22T02:07:50.330Z,99289.52
2017-08-22T02:10:20.068Z,99290.49
2017-08-22T02:12:49.774Z,99285.16
2017-08-22T02:15:19.561Z,99289.50
2017-08-22T02:17:49.271Z,99280.13
2017-08-22T02:20:19.037Z,99279.30
2017-08-22T02:22:48.777Z,99283.75
2017-08-22T02:25:18.583Z,99282.55
2017-08-22T02:27:48.329Z,99275.69
2017-08-22T02:30:18.080Z,99277.34
2017-08-22T02:32:47.803Z,99280.09
2017-08-22T02:35:17.574Z,99278.20
2017-08-22T02:37:47.314Z,99281.93
2017-08-22T02:40:17.099Z,99278.34
2017-08-22T02:42:46.803Z,99284.86
2017-08-22T02:45:16.555Z,99281.80
2017-08-22T02:47:46.280Z,99276.42
2017-08-22T02:50:16.046Z,99273.73
2017-08-22T02:52:45.737Z,99270.95
2017-08-22T02:55:15.518Z,99274.56
2017-08-22T02:57:45.229Z,99280.19
2017-08-22T03:00:15.011Z,99279.05
2017-08-22T03:02:44.741Z,99275.23
2017-08-22T03:05:14.332Z,99274.12
2017-08-22T03:07:44.091Z,99272.71
2017-08-22T03:10:14.518Z,99271.27
2017-08-22T03:12:44.227Z,99272.03
2017-08-22T03:15:14.008Z,99274.41
2017-08-22T03:17:43.556Z,99270.27
2017-08-22T03:20:13.365Z,99271.65
2017-08-22T03:22:43.061Z,99265.03
2017-08-22T03:25:12.826Z,99268.55
2017-08-22T03:27:42.549Z,99267.93
2017-08-22T03:30:12.290Z,99282.30
2017-08-22T03:32:42.013Z,99283.05
2017-08-22T03:35:11.771Z,99285.92
2017-08-22T03:37:41.489Z,99289.53
2017-08-22T03:40:11.304Z,99287.30
2017-08-22T03:42:41.010Z,99289.39
2017-08-22T03:45:10.780Z,99291.19
2017-08-22T03:47:40.488Z,99299.55
2017-08-22T03:50:10.264Z,99300.72
2017-08-22T03:52:39.984Z,99307.65
2017-08-22T03:55:09.737Z,99308.92
2017-08-22T03:57:39.451Z,99310.36
2017-08-22T04:00:09.222Z,99309.02
2017-08-22T04:02:38.790Z,99312.33
2017-08-22T04:05:08.581Z,99310.98
2017-08-22T04:07:38.995Z,99317.01
2017-08-22T04:10:08.768Z,99317.11
2017-08-22T04:12:38.487Z,99314.80
2017-08-22T04:15:08.247Z,99312.84
2017-08-22T04:17:37.985Z,99319.56
2017-08-22T04:20:07.747Z,99316.63
2017-08-22T04:22:37.476Z,99313.95
2017-08-22T04:25:07.256Z,99302.34
2017-08-22T04:27:36.971Z,99312.37
2017-08-22T04:30:06.729Z,99311.51
2017-08-22T04:32:36.599Z,99310.16
2017-08-22T04:35:06.363Z,99311.72
2017-08-22T04:37:36.085Z,99311.34
2017-08-22T04:40:05.846Z,99308.75
2017-08-22T04:42:35.585Z,99310.99
2017-08-22T04:45:05.182Z,99302.79
2017-08-22T04:47:34.901Z,99302.10
2017-08-22T04:50:04.717Z,99307.47
2017-08-22T04:52:34.448Z,99305.75
2017-08-22T04:55:04.217Z,99301.78
2017-08-22T04:57:33.937Z,99304.56
2017-08-22T05:00:03.709Z,99304.09
2017-08-22T05:02:33.281Z,99301.54
2017-08-22T05:05:03.053Z,99309.42
2017-08-22T05:07:32.642Z,99304.88
2017-08-22T05:10:02.405Z,99311.20
2017-08-22T05:12:32.121Z,99311.69
2017-08-22T05:15:01.964Z,99309.42
2017-08-22T05:17:31.681Z,99311.86
2017-08-22T05:20:01.437Z,99309.63
2017-08-22T05:22:31.296Z,99310.92
2017-08-22T05:25:01.068Z,99315.80
2017-08-22T05:27:30.798Z,99321.15
2017-08-22T05:30:00.547Z,99316.67
2017-08-22T05:32:30.272Z,99318.65
2017-08-22T05:35:00.102Z,99314.78
2017-08-22T05:37:29.827Z,99311.58
2017-08-22T05:39:59.564Z,99318.74
2017-08-22T05:42:29.314Z,99317.66
2017-08-22T05:44:59.183Z,99321.48
2017-08-22T05:47:28.929Z,99304.46
2017-08-22T05:49:58.657Z,99309.88
2017-08-22T05:52:28.391Z,99311.06
2017-08-22T05:54:58.115Z,99310.95
2017-08-22T05:57:27.844Z,99311.45
2017-08-22T05:59:57.565Z,99309.34
2017-08-22T06:02:27.299Z,99307.57
2017-08-22T06:04:57.045Z,99304.48
2017-08-22T06:07:26.780Z,99312.61
2017-08-22T06:09:56.523Z,99311.36
2017-08-22T06:12:26.265Z,99314.50
2017-08-22T06:14:56.050Z,99313.34
2017-08-22T06:17:25.762Z,99313.92
2017-08-22T06:19:55.540Z,99313.75
2017-08-22T06:22:25.284Z,99308.13
2017-08-22T06:24:55.037Z,99312.26
2017-08-22T06:27:24.826Z,99309.45
2017-08-22T06:29:54.619Z,99302.55
2017-08-22T06:32:24.349Z,99297.97
2017-08-22T06:34:54.291Z,99291.66
2017-08-22T06:37:24.062Z,99288.12
2017-08-22T06:39:53.845Z,99280.94
2017-08-22T06:42:23.598Z,99280.71
2017-08-22T06:44:53.357Z,99281.46
2017-08-22T06:47:23.105Z,99279.81
2017-08-22T06:49:52.872Z,99278.55
2017-08-22T06:52:22.632Z,99285.62
2017-08-22T06:54:52.585Z,99275.13
2017-08-22T06:57:23.332Z,99280.91
2017-08-22T06:59:55.135Z,99280.06
2017-08-22T07:02:27.611Z,99283.37
2017-08-22T07:05:00.092Z,99281.98
2017-08-22T07:07:32.365Z,99282.61
2017-08-22T07:10:03.967Z,99280.76
2017-08-22T07:12:36.109Z,99276.06
2017-08-22T07:15:08.705Z,99281.31
2017-08-22T07:17:38.920Z,99281.08
2017-08-22T07:20:09.145Z,99269.45
2017-08-22T07:22:38.585Z,99279.23
2017-08-22T07:25:40.904Z,99276.02
2017-08-22T07:28:10.417Z,99269.39
2017-08-22T07:30:39.866Z,99269.80
2017-08-22T07:33:09.329Z,99273.76
2017-08-22T07:35:38.787Z,99271.03
2017-08-22T07:38:08.240Z,99274.59
2017-08-22T07:40:37.717Z,99266.55
2017-08-22T07:43:07.172Z,99275.28
2017-08-22T07:45:36.679Z,99274.34
2017-08-22T07:48:06.161Z,99277.48
2017-08-22T07:50:35.696Z,99272.84
2017-08-22T07:53:05.161Z,99273.23
2017-08-22T07:55:34.610Z,99269.02
2017-08-22T07:58:04.069Z,99269.13
2017-08-22T08:00:33.562Z,99261.31
2017-08-22T08:03:02.853Z,99268.30
2017-08-22T08:05:32.320Z,99266.60
2017-08-22T08:08:01.784Z,99264.02
2017-08-22T08:10:31.282Z,99262.97
2017-08-22T08:13:00.759Z,99254.13
2017-08-22T08:15:30.200Z,99259.27
2017-08-22T08:18:00.520Z,99255.63
2017-08-22T08:20:30.012Z,99250.88
2017-08-22T08:23:00.163Z,99249.46
2017-08-22T08:25:29.656Z,99246.87
2017-08-22T08:27:59.096Z,99250.92
2017-08-22T08:30:28.557Z,99247.78
2017-08-22T08:32:58.016Z,99242.00
2017-08-22T08:35:27.489Z,99237.86
2017-08-22T08:37:56.959Z,99238.61
2017-08-22T08:40:26.427Z,99237.34
2017-08-22T08:42:55.880Z,99239.61
2017-08-22T08:45:25.383Z,99238.56
2017-08-22T08:47:54.830Z,99238.92
2017-08-22T08:50:24.309Z,99232.48
2017-08-22T08:52:54.459Z,99238.30
2017-08-22T08:55:23.926Z,99226.20
2017-08-22T08:57:53.384Z,99224.55
2017-08-22T09:00:22.866Z,99224.48
2017-08-22T09:02:52.326Z,99225.72
2017-08-22T09:05:21.808Z,99226.25
2017-08-22T09:07:51.096Z,99225.35
2017-08-22T09:10:20.613Z,99225.23
2017-08-22T09:12:50.076Z,99215.04
2017-08-22T09:15:19.853Z,99211.42
2017-08-22T09:17:49.312Z,99207.01
2017-08-22T09:20:18.809Z,99205.69
2017-08-22T09:22:48.304Z,99203.02
2017-08-22T09:25:17.872Z,99199.88
2017-08-22T09:27:47.336Z,99203.45
2017-08-22T09:30:16.827Z,99193.03
2017-08-22T09:32:46.097Z,99194.60
2017-08-22T09:35:15.645Z,99192.83
2017-08-22T09:37:45.090Z,99195.22
2017-08-22T09:40:14.572Z,99193.78
2017-08-22T09:42:44.045Z,99178.92
2017-08-22T09:45:13.653Z,99171.26
2017-08-22T09:47:43.188Z,99168.88
2017-08-22T09:50:12.721Z,99170.95
2017-08-22T09:52:42.183Z,99169.03
2017-08-22T09:55:11.670Z,99166.98
2017-08-22T09:57:41.144Z,99167.47
2017-08-22T10:00:10.637Z,99160.13
2017-08-22T10:02:39.960Z,99161.91
2017-08-22T10:05:09.465Z,99152.09
2017-08-22T10:07:38.896Z,99144.33
2017-08-22T10:10:08.400Z,99144.84
2017-08-22T10:12:37.848Z,99141.88
2017-08-22T10:15:07.377Z,99142.88
2017-08-22T10:17:36.828Z,99141.66
2017-08-22T10:20:06.340Z,99134.08
2017-08-22T10:22:35.863Z,99123.45
2017-08-22T10:25:05.343Z,99123.13
2017-08-22T10:27:34.784Z,99125.02
2017-08-22T10:30:04.367Z,99115.70
2017-08-22T10:32:33.788Z,99109.48
2017-08-22T10:35:03.282Z,99118.16
2017-08-22T10:37:34.655Z,99108.91
2017-08-22T10:40:04.784Z,99115.03
2017-08-22T10:42:34.226Z,99109.72
2017-08-22T10:45:03.713Z,99102.44
2017-08-22T10:47:33.161Z,99093.37
2017-08-22T10:50:02.649Z,99085.78
2017-08-22T10:52:32.090Z,99093.05
2017-08-22T10:55:01.573Z,99085.91
2017-08-22T10:57:31.012Z,99085.92
2017-08-22T11:00:00.464Z,99075.62
2017-08-22T11:02:29.948Z,99078.53
2017-08-22T11:04:59.404Z,99072.27
2017-08-22T11:07:28.852Z,99065.97
2017-08-22T11:09:58.308Z,99066.06
2017-08-22T11:12:27.769Z,99065.13
2017-08-22T11:14:57.235Z,99063.54
2017-08-22T11:17:26.716Z,99062.76
2017-08-22T11:19:56.168Z,99063.53
2017-08-22T11:22:25.614Z,99061.83
2017-08-22T11:24:55.071Z,99050.66
2017-08-22T11:27:24.532Z,99057.46
2017-08-22T11:29:53.988Z,99054.05
2017-08-22T11:32:23.469Z,99040.64
2017-08-22T11:34:53.281Z,99037.99
2017-08-22T11:37:22.738Z,99043.59
2017-08-22T11:39:54.077Z,99033.00
2017-08-22T11:42:23.860Z,99035.68
2017-08-22T11:44:53.357Z,99038.88
2017-08-22T11:47:22.827Z,99033.72
2017-08-22T11:49:52.265Z,99036.66
2017-08-22T11:52:21.752Z,99028.78
2017-08-22T11:54:51.206Z,99038.71
2017-08-22T11:57:20.657Z,99020.81
2017-08-22T11:59:50.103Z,99035.14
2017-08-22T12:02:21.285Z,99027.12
2017-08-22T12:04:51.054Z,99034.81
2017-08-22T12:07:20.498Z,99026.14
2017-08-22T12:09:50.104Z,99029.86
2017-08-22T12:12:19.574Z,99021.44
2017-08-22T12:14:49.031Z,99019.50
2017-08-22T12:17:18.559Z,99025.09
2017-08-22T12:19:47.824Z,99021.95
2017-08-22T12:22:17.081Z,99016.98
2017-08-22T12:24:51.149Z,99014.77
2017-08-22T12:27:21.924Z,99004.45
2017-08-22T12:29:51.374Z,98996.68
2017-08-22T12:32:20.814Z,99009.30
2017-08-22T12:34:50.258Z,98996.95
2017-08-22T12:37:19.719Z,98987.34
2017-08-22T12:39:49.162Z,98985.67
2017-08-22T12:42:18.605Z,98987.19
2017-08-22T12:44:48.072Z,98984.12
2017-08-22T12:47:17.496Z,98980.06
2017-08-22T12:49:46.947Z,98982.41
2017-08-22T12:52:16.385Z,98989.19
2017-08-22T12:54:45.833Z,98981.17
2017-08-22T12:57:15.277Z,98977.28
2017-08-22T12:59:44.733Z,98967.34
2017-08-22T13:02:14.190Z,98962.20
2017-08-22T13:04:43.620Z,98960.06
2017-08-22T13:07:13.066Z,98959.06
2017-08-22T13:09:42.517Z,98957.69
2017-08-22T13:12:11.962Z,98952.98
2017-08-22T13:14:41.486Z,98953.20
2017-08-22T13:17:10.923Z,98950.53
2017-08-22T13:19:40.386Z,98948.06
2017-08-22T13:22:09.829Z,98938.36
2017-08-22T13:24:39.280Z,98943.73
2017-08-22T13:27:08.708Z,98940.38
2017-08-22T13:29:38.151Z,98936.41
2017-08-22T13:32:07.625Z,98938.23
2017-08-22T13:34:37.107Z,98933.27
2017-08-22T13:37:06.520Z,98936.58
2017-08-22T13:39:35.956Z,98935.80
2017-08-22T13:42:05.413Z,98931.20
2017-08-22T13:44:34.849Z,98930.03
2017-08-22T13:47:04.300Z,98927.05
2017-08-22T13:49:34.432Z,98922.37
2017-08-22T13:52:03.928Z,98921.16
2017-08-22T13:54:33.399Z,98910.45
2017-08-22T13:57:02.657Z,98907.11
2017-08-22T13:59:31.929Z,98904.13
2017-08-22T14:02:01.386Z,98900.52
2017-08-22T14:04:30.832Z,98904.28
2017-08-22T14:07:00.264Z,98897.73
2017-08-22T14:09:29.721Z,98883.33
2017-08-22T14:11:59.177Z,98890.41
2017-08-22T14:14:28.616Z,98886.74
2017-08-22T14:16:58.070Z,98886.59
2017-08-22T14:19:27.534Z,98890.45
2017-08-22T14:21:56.968Z,98890.75
2017-08-22T14:24:26.413Z,98886.75
2017-08-22T14:26:55.852Z,98893.59
2017-08-22T14:29:25.297Z,98887.30
2017-08-22T14:31:54.745Z,98882.16
2017-08-22T14:34:24.192Z,98884.43
2017-08-22T14:36:53.641Z,98884.16
2017-08-22T14:39:22.920Z,98878.11
2017-08-22T14:41:52.374Z,98878.48
2017-08-22T14:44:21.808Z,98876.82
2017-08-22T14:46:51.256Z,98887.55
2017-08-22T14:49:20.809Z,98875.56
2017-08-22T14:51:50.256Z,98875.30
2017-08-22T14:54:19.697Z,98881.55
2017-08-22T14:56:49.272Z,98874.80
2017-08-22T14:59:18.713Z,98873.38
2017-08-22T15:01:48.153Z,98874.30
2017-08-22T15:04:17.415Z,98867.19
2017-08-22T15:06:46.881Z,98871.45
2017-08-22T15:09:16.325Z,98871.37
2017-08-22T15:11:45.794Z,98865.80
2017-08-22T15:14:15.230Z,98864.78
2017-08-22T15:16:44.697Z,98865.72
2017-08-22T15:19:14.124Z,98865.11
2017-08-22T15:21:43.567Z,98861.89
2017-08-22T15:24:13.022Z,98867.28
2017-08-22T15:26:42.465Z,98864.84
2017-08-22T15:29:11.915Z,98859.58
2017-08-22T15:31:41.361Z,98854.06
2017-08-22T15:34:10.828Z,98851.78
2017-08-22T15:36:40.296Z,98845.25
2017-08-22T15:39:09.729Z,98860.88
2017-08-22T15:41:39.184Z,98857.03
2017-08-22T15:44:08.610Z,98846.22
2017-08-22T15:46:38.066Z,98850.03
2017-08-22T15:49:07.529Z,98858.85
2017-08-22T15:51:36.993Z,98850.00
2017-08-22T15:54:06.463Z,98847.32
2017-08-22T15:56:36.143Z,98850.75
2017-08-22T15:59:11.769Z,98850.09
2017-08-22T16:01:43.066Z,98848.44
2017-08-22T16:04:13.063Z,98842.42
2017-08-22T16:06:42.739Z,98838.18
2017-08-22T16:09:12.673Z,98843.23
2017-08-22T16:11:42.494Z,98848.94
2017-08-22T16:14:12.509Z,98842.23
2017-08-22T16:16:41.948Z,98836.23
2017-08-22T16:19:11.389Z,98841.21
2017-08-22T16:21:40.836Z,98835.42
2017-08-22T16:24:10.298Z,98834.20
2017-08-22T16:26:39.728Z,98839.50
2017-08-22T16:29:09.168Z,98835.90
2017-08-22T16:31:38.614Z,98840.61
2017-08-22T16:34:08.077Z,98841.45
2017-08-22T16:36:37.355Z,98848.23
2017-08-22T16:39:06.799Z,98842.09
2017-08-22T16:41:36.208Z,98844.25
2017-08-22T16:44:05.647Z,98848.78
2017-08-22T16:46:35.098Z,98853.83
2017-08-22T16:49:04.548Z,98855.86
2017-08-22T16:51:34.000Z,98841.45
2017-08-22T16:54:03.436Z,98850.02
2017-08-22T16:56:32.886Z,98849.05
2017-08-22T16:59:02.341Z,98849.07
2017-08-22T17:01:31.845Z,98845.94
2017-08-22T17:04:01.288Z,98845.93
2017-08-22T17:06:30.725Z,98850.78
2017-08-22T17:09:00.169Z,98848.28
2017-08-22T17:11:29.613Z,98845.45
2017-08-22T17:13:59.069Z,98851.09
2017-08-22T17:16:28.518Z,98847.59
2017-08-22T17:18:57.946Z,98850.64
2017-08-22T17:21:27.385Z,98851.69
2017-08-22T17:23:56.854Z,98847.75
2017-08-22T17:26:26.286Z,98845.88
2017-08-22T17:28:55.745Z,98849.59
2017-08-22T17:31:25.209Z,98847.84
2017-08-22T17:33:54.633Z,98844.02
2017-08-22T17:36:24.109Z,98851.66
2017-08-22T17:38:53.588Z,98849.99
2017-08-22T17:41:23.014Z,98853.66
2017-08-22T17:43:52.455Z,98853.47
2017-08-22T17:46:21.901Z,98860.64
2017-08-22T17:48:51.366Z,98857.52
2017-08-22T17:51:21.505Z,98859.13
2017-08-22T17:53:50.935Z,98855.13
2017-08-22T17:56:20.403Z,98856.42
2017-08-22T17:58:49.859Z,98866.11
2017-08-22T18:01:19.313Z,98862.77
2017-08-22T18:03:48.875Z,98869.47
2017-08-22T18:06:18.351Z,98868.36
2017-08-22T18:08:47.780Z,98866.34
2017-08-22T18:11:17.246Z,98860.75
2017-08-22T18:13:46.672Z,98867.87
2017-08-22T18:16:16.121Z,98867.09
2017-08-22T18:18:45.573Z,98871.31
2017-08-22T18:21:15.028Z,98871.16
2017-08-22T18:23:44.476Z,98872.78
2017-08-22T18:26:13.935Z,98875.85
2017-08-22T18:28:43.402Z,98878.89
2017-08-22T18:31:12.853Z,98879.31
2017-08-22T18:33:42.304Z,98879.17
2017-08-22T18:36:11.749Z,98877.23
2017-08-22T18:38:41.216Z,98884.23
2017-08-22T18:41:10.641Z,98889.50
2017-08-22T18:43:40.096Z,98887.84
2017-08-22T18:46:09.541Z,98897.23
2017-08-22T18:48:39.000Z,98895.92
2017-08-22T18:51:08.441Z,98903.95
2017-08-22T18:53:37.897Z,98911.67
2017-08-22T18:56:07.408Z,98905.66
2017-08-22T18:58:36.877Z,98912.19
2017-08-22T19:01:06.304Z,98914.95
2017-08-22T19:03:35.768Z,98921.25
2017-08-22T19:06:05.247Z,98914.66
2017-08-22T19:08:34.680Z,98921.77
2017-08-22T19:11:04.147Z,98925.34
2017-08-22T19:13:33.589Z,98924.55
2017-08-22T19:16:03.033Z,98921.88
2017-08-22T19:18:32.489Z,98920.81
2017-08-22T19:21:01.941Z,98925.45
2017-08-22T19:23:31.402Z,98926.72
2017-08-22T19:26:00.849Z,98918.31
2017-08-22T19:28:30.290Z,98917.10
2017-08-22T19:30:59.752Z,98916.31
2017-08-22T19:33:29.200Z,98911.69
2017-08-22T19:35:58.662Z,98905.17
2017-08-22T19:38:28.168Z,98905.20
2017-08-22T19:40:57.605Z,98902.36
2017-08-22T19:43:27.058Z,98908.58
2017-08-22T19:45:56.498Z,98911.31
2017-08-22T19:48:25.965Z,98911.84
2017-08-22T19:50:55.433Z,98904.92
2017-08-22T19:53:24.865Z,98907.62
2017-08-22T19:55:54.321Z,98904.92
2017-08-22T19:58:23.885Z,98896.23
2017-08-22T20:00:53.355Z,98899.61
2017-08-22T20:03:22.814Z,98897.84
2017-08-22T20:05:52.279Z,98893.77
2017-08-22T20:08:21.718Z,98900.11
2017-08-22T20:10:51.165Z,98898.90
2017-08-22T20:13:20.949Z,98899.95
2017-08-22T20:15:50.705Z,98898.00
2017-08-22T20:18:20.445Z,98890.95
2017-08-22T20:20:50.157Z,98897.58
2017-08-22T20:23:19.629Z,98895.78
2017-08-22T20:25:49.072Z,98894.94
2017-08-22T20:28:18.836Z,98899.95
2017-08-22T20:30:48.567Z,98893.27
2017-08-22T20:33:18.301Z,98900.05
2017-08-22T20:35:48.044Z,98900.67
2017-08-22T20:38:17.811Z,98898.33
2017-08-22T20:40:47.532Z,98901.03
2017-08-22T20:43:17.314Z,98908.84
2017-08-22T20:45:47.070Z,98913.15
2017-08-22T20:48:16.791Z,98906.62
2017-08-22T20:50:46.591Z,98915.14
2017-08-22T20:53:16.345Z,98913.63
2017-08-22T20:55:46.072Z,98910.87
2017-08-22T20:58:15.805Z,98914.12
2017-08-22T21:00:45.560Z,98916.16
2017-08-22T21:03:15.365Z,98911.12
2017-08-22T21:05:45.104Z,98910.46
2017-08-22T21:08:14.852Z,98913.95
2017-08-22T21:10:44.578Z,98912.34
2017-08-22T21:13:14.307Z,98911.24
2017-08-22T21:15:44.046Z,98914.77
2017-08-22T21:18:13.764Z,98914.39
2017-08-22T21:20:43.497Z,98909.52
2017-08-22T21:23:13.229Z,98907.23
2017-08-22T21:25:42.994Z,98906.16
2017-08-22T21:28:12.781Z,98903.49
2017-08-22T21:30:42.519Z,98902.27
2017-08-22T21:33:12.262Z,98905.67
2017-08-22T21:35:42.017Z,98894.18
2017-08-22T21:38:11.753Z,98901.90
2017-08-22T21:40:41.344Z,98908.84
2017-08-22T21:43:11.076Z,98903.99
2017-08-22T21:45:40.805Z,98901.29
2017-08-22T21:48:10.536Z,98899.97
2017-08-22T21:50:40.272Z,98904.73
2017-08-22T21:53:10.251Z,98906.09
2017-08-22T21:55:39.980Z,98907.44
2017-08-22T21:58:09.736Z,98913.43
2017-08-22T22:00:39.472Z,98913.14
2017-08-22T22:03:09.049Z,98911.79
2017-08-22T22:05:38.768Z,98913.30
2017-08-22T22:08:08.512Z,98909.77
2017-08-22T22:10:37.954Z,98912.08
2017-08-22T22:13:07.707Z,98913.71
2017-08-22T22:15:37.455Z,98912.64
2017-08-22T22:18:06.889Z,98911.13
2017-08-22T22:20:36.624Z,98910.87
2017-08-22T22:23:06.374Z,98912.64
2017-08-22T22:25:36.140Z,98917.28
2017-08-22T22:28:05.860Z,98918.09
2017-08-22T22:30:35.600Z,98915.92
2017-08-22T22:33:05.329Z,98916.62
2017-08-22T22:35:34.765Z,98914.86
2017-08-22T22:38:04.497Z,98921.22
2017-08-22T22:40:34.228Z,98915.52
2017-08-22T22:43:03.961Z,98913.34
2017-08-22T22:45:33.701Z,98910.09
2017-08-22T22:48:03.448Z,98911.58
2017-08-22T22:50:32.883Z,98912.80
2017-08-22T22:53:02.621Z,98915.39
2017-08-22T22:55:32.368Z,98917.28
2017-08-22T22:58:02.117Z,98912.80
2017-08-22T23:00:31.888Z,98911.45
2017-08-22T23:03:01.486Z,98910.50
2017-08-22T23:05:30.927Z,98909.15
2017-08-22T23:08:00.664Z,98911.45
2017-08-22T23:10:30.124Z,98900.73
2017-08-22T23:12:59.580Z,98904.92
2017-08-22T23:15:29.307Z,98903.98
2017-08-22T23:17:58.866Z,98904.36
2017-08-22T23:20:28.608Z,98898.61
2017-08-22T23:22:58.334Z,98904.94
2017-08-22T23:25:28.063Z,98907.61
2017-08-22T23:27:57.780Z,98910.55
2017-08-22T23:30:27.528Z,98910.27
2017-08-22T23:32:57.253Z,98909.97
2017-08-22T23:35:27.007Z,98907.34
2017-08-22T23:37:56.717Z,98909.48
2017-08-22T23:40:26.478Z,98910.54
2017-08-22T23:42:59.927Z,98915.52
2017-08-22T23:45:29.685Z,98913.06
2017-08-22T23:47:59.388Z,98911.00
2017-08-22T23:50:29.133Z,98909.73
2017-08-22T23:52:58.873Z,98908.23
2017-08-22T23:55:28.582Z,98909.91
2017-08-22T23:57:58.319Z,98913.74
